Time;durP1;ratioP1;P1;durP2;ratioP2;P2;SDS_P1;SDS_P2;PMS_P1;PMS_P2;Temp;Humidity;BMP_temperature;BMP_pressure;BME280_temperature;BME280_humidity;BME280_pressure;Samples;Min_cycle;Max_cycle;Signal;HPM_P1;HPM_P2
2022/04/09 00:02:21;;;;;;;;;;;;;;;3.03;68.66;98465.12;1739100;82;20233;-69
2022/04/09 00:04:47;;;;;;;;;;;;;;;3.04;68.71;98465.45;1738865;82;20221;-69
2022/04/09 00:07:14;;;;;;;;;;;;;;;3.08;68.77;98465.45;1735563;82;21154;-69
2022/04/09 00:09:40;;;;;;;;;;;;;;;3.14;68.82;98462.62;1734255;82;20187;-67
2022/04/09 00:12:06;;;;;;;;;;;;;;;3.17;68.87;98460.47;1734241;82;20233;-67
2022/04/09 00:14:31;;;;;;;;;;;;;;;3.22;68.92;98464.73;1734208;82;20195;-67
2022/04/09 00:16:57;;;;;;;;;;;;;;;3.26;68.97;98461.27;1734418;82;20198;-68
2022/04/09 00:19:23;;;;;;;;;;;;;;;3.29;69.03;98461.75;1734627;82;21739;-68
2022/04/09 00:21:52;;;;;;;;;;;;;;;3.32;69.09;98464.03;1734360;82;20483;-68
2022/04/09 00:24:18;;;;;;;;;;;;;;;3.35;69.16;98462.37;1734528;82;20156;-68
2022/04/09 00:26:44;;;;;;;;;;;;;;;3.38;69.22;98463.34;1733965;81;20184;-67
2022/04/09 00:29:10;;;;;;;;;;;;;;;3.40;69.28;98464.00;1734440;82;20253;-68
2022/04/09 00:31:36;;;;;;;;;;;;;;;3.43;69.34;98462.83;1734385;82;21717;-67
2022/04/09 00:34:01;;;;;;;;;;;;;;;3.46;69.41;98463.80;1734222;82;20194;-67
2022/04/09 00:36:27;;;;;;;;;;;;;;;3.50;69.47;98465.10;1734332;82;20217;-67
2022/04/09 00:38:53;;;;;;;;;;;;;;;3.51;69.54;98455.72;1734204;82;20702;-67
2022/04/09 00:41:19;;;;;;;;;;;;;;;3.52;69.60;98462.61;1734540;82;20218;-68
2022/04/09 00:43:45;;;;;;;;;;;;;;;3.53;69.66;98467.39;1733949;82;21166;-67
2022/04/09 00:46:11;;;;;;;;;;;;;;;3.53;69.73;98474.80;1734111;82;20209;-67
2022/04/09 00:48:37;;;;;;;;;;;;;;;3.55;69.82;98473.81;1734268;82;20213;-67
2022/04/09 00:51:03;;;;;;;;;;;;;;;3.55;69.87;98472.50;1734083;82;20154;-68
2022/04/09 00:53:34;;;;;;;;;;;;;;;3.55;69.95;98468.55;1734626;82;20226;-67
2022/04/09 00:56:16;;;;;;;;;;;;;;;3.53;70.02;98469.53;1734494;82;21082;-68
2022/04/09 00:58:51;;;;;;;;;;;;;;;3.52;70.06;98473.15;1734391;82;20195;-68
2022/04/09 01:01:18;;;;;;;;;;;;;;;3.50;70.16;98475.15;1734143;82;20163;-68
2022/04/09 01:03:44;;;;;;;;;;;;;;;3.49;70.22;98477.94;1734228;82;20128;-68
2022/04/09 01:06:10;;;;;;;;;;;;;;;3.47;70.30;98486.03;1734165;82;20680;-67
2022/04/09 01:08:35;;;;;;;;;;;;;;;3.46;70.35;98496.73;1715278;82;21874;-67
2022/04/09 01:11:01;;;;;;;;;;;;;;;3.45;70.42;98500.35;1734101;82;20217;-68
2022/04/09 01:13:27;;;;;;;;;;;;;;;3.44;70.46;98507.46;1734046;82;20578;-68
2022/04/09 01:15:53;;;;;;;;;;;;;;;3.43;70.53;98508.45;1715590;82;20225;-68
2022/04/09 01:18:19;;;;;;;;;;;;;;;3.41;70.59;98507.78;1734330;82;20722;-67
2022/04/09 01:20:44;;;;;;;;;;;;;;;3.40;70.67;98514.06;1734353;82;21162;-67
2022/04/09 01:23:10;;;;;;;;;;;;;;;3.41;70.76;98518.84;1734043;82;20190;-68
2022/04/09 01:25:37;;;;;;;;;;;;;;;3.41;70.82;98526.22;1734193;81;20205;-68
2022/04/09 01:28:04;;;;;;;;;;;;;;;3.40;70.88;98525.92;1734258;82;20156;-68
2022/04/09 01:30:30;;;;;;;;;;;;;;;3.39;70.96;98536.13;1734067;81;20627;-67
2022/04/09 01:32:56;;;;;;;;;;;;;;;3.38;71.03;98541.05;1734431;82;21191;-68
2022/04/09 01:35:22;;;;;;;;;;;;;;;3.38;71.12;98540.23;1734486;81;20165;-68
2022/04/09 01:37:48;;;;;;;;;;;;;;;3.37;71.19;98543.39;1734402;82;20801;-68
2022/04/09 01:40:13;;;;;;;;;;;;;;;3.37;71.24;98552.61;1733949;82;20162;-68
2022/04/09 01:42:39;;;;;;;;;;;;;;;3.38;71.32;98555.55;1734376;81;20189;-68
2022/04/09 01:45:06;;;;;;;;;;;;;;;3.38;71.37;98556.86;1734240;82;21135;-68
2022/04/09 01:47:32;;;;;;;;;;;;;;;3.39;71.43;98566.91;1734240;81;20163;-68
2022/04/09 01:49:58;;;;;;;;;;;;;;;3.39;71.50;98567.73;1734223;82;20139;-68
2022/04/09 01:52:24;;;;;;;;;;;;;;;3.39;71.55;98566.42;1734083;82;20197;-68
2022/04/09 01:54:50;;;;;;;;;;;;;;;3.39;71.61;98570.38;1734402;82;20174;-68
2022/04/09 01:57:15;;;;;;;;;;;;;;;3.40;71.66;98571.20;1734343;82;21131;-68
2022/04/09 01:59:43;;;;;;;;;;;;;;;3.41;71.72;98576.28;1733950;82;20268;-68
2022/04/09 02:02:09;;;;;;;;;;;;;;;3.42;71.78;98576.61;1734456;81;20187;-68
2022/04/09 02:04:35;;;;;;;;;;;;;;;3.44;71.84;98577.28;1734160;82;20160;-68
2022/04/09 02:07:00;;;;;;;;;;;;;;;3.47;71.87;98583.53;1735900;82;20170;-68
2022/04/09 02:09:26;;;;;;;;;;;;;;;3.45;71.90;98581.54;1738916;82;21239;-68
2022/04/09 02:11:52;;;;;;;;;;;;;;;3.48;71.97;98579.88;1739030;82;20207;-68
2022/04/09 02:14:18;;;;;;;;;;;;;;;3.49;71.99;98584.17;1739176;82;20204;-70
2022/04/09 02:16:44;;;;;;;;;;;;;;;3.49;72.03;98581.53;1739228;82;20217;-69
2022/04/09 02:19:10;;;;;;;;;;;;;;;3.50;72.06;98591.09;1712377;82;20159;-69
2022/04/09 02:21:37;;;;;;;;;;;;;;;3.50;72.08;98588.45;1739024;82;21168;-69
2022/04/09 02:24:03;;;;;;;;;;;;;;;3.50;72.13;98591.09;1738819;82;20183;-69
2022/04/09 02:26:29;;;;;;;;;;;;;;;3.49;72.19;98584.17;1738940;82;20179;-69
2022/04/09 02:28:56;;;;;;;;;;;;;;;3.50;72.24;98585.82;1738930;82;20174;-69
2022/04/09 02:31:22;;;;;;;;;;;;;;;3.49;72.27;98588.12;1739128;82;20195;-69
2022/04/09 02:33:48;;;;;;;;;;;;;;;3.49;72.29;98593.88;1739261;82;21024;-69
2022/04/09 02:36:15;;;;;;;;;;;;;;;3.47;72.33;98595.39;1739082;82;20236;-69
2022/04/09 02:38:44;;;;;;;;;;;;;;;3.46;72.36;98592.41;1739266;82;20541;-69
2022/04/09 02:41:10;;;;;;;;;;;;;;;3.46;72.41;98595.05;1713646;82;20143;-69
2022/04/09 02:43:36;;;;;;;;;;;;;;;3.45;72.43;98596.03;1739184;82;20225;-67
2022/04/09 02:46:02;;;;;;;;;;;;;;;3.45;72.48;98595.20;1739310;82;21112;-67
2022/04/09 02:48:28;;;;;;;;;;;;;;;3.46;72.50;98604.77;1739321;82;20143;-67
2022/04/09 02:50:54;;;;;;;;;;;;;;;3.45;72.54;98601.30;1739358;82;20788;-67
2022/04/09 02:53:20;;;;;;;;;;;;;;;3.45;72.57;98605.74;1739187;82;20245;-67
2022/04/09 02:55:46;;;;;;;;;;;;;;;3.46;72.59;98614.81;1739307;82;20189;-67
2022/04/09 02:58:11;;;;;;;;;;;;;;;3.48;72.64;98622.04;1739066;82;21100;-67
2022/04/09 03:00:38;;;;;;;;;;;;;;;3.48;72.67;98623.36;1738837;82;20296;-67
2022/04/09 03:03:03;;;;;;;;;;;;;;;3.49;72.71;98634.23;1739210;82;20224;-67
2022/04/09 03:05:29;;;;;;;;;;;;;;;3.49;72.74;98636.87;1740030;82;20177;-67
2022/04/09 03:07:55;;;;;;;;;;;;;;;3.49;72.77;98631.59;1747217;81;20405;-67
2022/04/09 03:10:21;;;;;;;;;;;;;;;3.49;72.82;98639.50;1744739;82;21092;-68
2022/04/09 03:12:47;;;;;;;;;;;;;;;3.49;72.84;98644.77;1744716;82;20313;-68
2022/04/09 03:15:13;;;;;;;;;;;;;;;3.49;72.87;98646.09;1744638;82;20187;-68
2022/04/09 03:17:39;;;;;;;;;;;;;;;3.48;72.89;98654.98;1744894;82;20177;-68
2022/04/09 03:20:06;;;;;;;;;;;;;;;3.48;72.93;98655.50;1744653;82;20821;-68
2022/04/09 03:22:32;;;;;;;;;;;;;;;3.45;72.99;98656.63;1744696;81;21092;-68
2022/04/09 03:25:02;;;;;;;;;;;;;;;3.44;73.03;98668.19;1744543;82;20154;-68
2022/04/09 03:27:29;;;;;;;;;;;;;;;3.42;73.03;98675.41;1744766;82;20182;-68
2022/04/09 03:29:54;;;;;;;;;;;;;;;3.43;73.06;98678.88;1744668;82;20178;-68
2022/04/09 03:32:20;;;;;;;;;;;;;;;3.42;73.09;98674.09;1744730;82;20201;-68
2022/04/09 03:34:46;;;;;;;;;;;;;;;3.40;73.14;98676.09;1744715;82;21142;-68
2022/04/09 03:37:12;;;;;;;;;;;;;;;3.40;73.16;98679.22;1744677;82;20264;-68
2022/04/09 03:39:38;;;;;;;;;;;;;;;3.40;73.20;98680.53;1744626;82;20280;-68
2022/04/09 03:42:05;;;;;;;;;;;;;;;3.39;73.20;98674.44;1744629;82;20475;-68
2022/04/09 03:44:30;;;;;;;;;;;;;;;3.40;73.24;98687.95;1744432;81;20174;-68
2022/04/09 03:46:59;;;;;;;;;;;;;;;3.40;73.27;98693.22;1744787;82;21151;-68
2022/04/09 03:49:25;;;;;;;;;;;;;;;3.39;73.31;98696.83;1743863;82;20158;-68
2022/04/09 03:51:50;;;;;;;;;;;;;;;3.40;73.34;98696.34;1744801;82;20279;-68
2022/04/09 03:54:16;;;;;;;;;;;;;;;3.39;73.38;98699.47;1744231;82;20216;-70
2022/04/09 03:56:43;;;;;;;;;;;;;;;3.38;73.41;98707.03;1744765;82;20860;-69
2022/04/09 03:59:09;;;;;;;;;;;;;;;3.35;73.45;98706.54;1744603;82;21926;-70
2022/04/09 04:01:36;;;;;;;;;;;;;;;3.32;73.49;98708.19;1744309;82;20163;-69
2022/04/09 04:04:02;;;;;;;;;;;;;;;3.27;73.49;98716.58;1744535;81;20161;-68
2022/04/09 04:06:28;;;;;;;;;;;;;;;3.22;73.54;98718.91;1744273;82;20508;-68
2022/04/09 04:08:57;;;;;;;;;;;;;;;3.17;73.58;98722.52;1744339;82;20485;-68
2022/04/09 04:11:23;;;;;;;;;;;;;;;3.12;73.61;98726.15;1744218;82;21105;-68
2022/04/09 04:13:49;;;;;;;;;;;;;;;3.10;73.66;98737.84;1744565;81;21014;-68
2022/04/09 04:16:15;;;;;;;;;;;;;;;3.07;73.70;98741.60;1744869;82;20331;-68
2022/04/09 04:18:41;;;;;;;;;;;;;;;3.08;73.75;98745.06;1744638;82;20511;-68
2022/04/09 04:21:08;;;;;;;;;;;;;;;3.07;73.78;98749.50;1744736;82;20165;-68
2022/04/09 04:23:34;;;;;;;;;;;;;;;3.07;73.84;98758.72;1744615;82;21019;-68
2022/04/09 04:25:59;;;;;;;;;;;;;;;3.07;73.86;98760.03;1744593;81;20173;-68
2022/04/09 04:28:25;;;;;;;;;;;;;;;3.08;73.92;98769.59;1744427;82;20299;-68
2022/04/09 04:30:51;;;;;;;;;;;;;;;3.09;73.96;98772.56;1744732;82;20138;-68
2022/04/09 04:33:17;;;;;;;;;;;;;;;3.09;74.01;98779.14;1744675;82;20157;-68
2022/04/09 04:35:43;;;;;;;;;;;;;;;3.10;74.05;98780.77;1744497;82;20587;-68
2022/04/09 04:38:09;;;;;;;;;;;;;;;3.09;74.11;98787.05;1744483;82;20193;-68
2022/04/09 04:40:35;;;;;;;;;;;;;;;3.09;74.16;98789.68;1744675;81;20183;-68
2022/04/09 04:43:00;;;;;;;;;;;;;;;3.08;74.21;98790.66;1744553;82;20207;-68
2022/04/09 04:45:26;;;;;;;;;;;;;;;3.08;74.26;98800.36;1744564;82;20292;-68
2022/04/09 04:47:52;;;;;;;;;;;;;;;3.05;74.33;98801.52;1744621;82;21199;-68
2022/04/09 04:50:19;;;;;;;;;;;;;;;3.05;74.41;98804.15;1744619;82;20252;-68
2022/04/09 04:52:44;;;;;;;;;;;;;;;3.06;74.44;98801.86;1744503;82;20171;-68
2022/04/09 04:55:11;;;;;;;;;;;;;;;3.07;74.49;98803.97;1744612;82;20220;-68
2022/04/09 04:57:46;;;;;;;;;;;;;;;3.09;74.55;98813.38;1744554;82;20170;-68
2022/04/09 05:00:15;;;;;;;;;;;;;;;3.12;74.59;98814.38;1744666;81;20929;-67
2022/04/09 05:02:41;;;;;;;;;;;;;;;3.15;74.62;98820.63;1744109;82;20152;-67
2022/04/09 05:05:07;;;;;;;;;;;;;;;3.19;74.67;98821.95;1744426;82;20269;-68
2022/04/09 05:07:38;;;;;;;;;;;;;;;3.22;74.72;98826.89;1745207;81;20494;-68
2022/04/09 05:10:06;;;;;;;;;;;;;;;3.26;74.75;98832.17;1749704;81;20185;-68
2022/04/09 05:12:33;;;;;;;;;;;;;;;3.31;74.81;98843.03;1750145;82;21235;-68
2022/04/09 05:14:59;;;;;;;;;;;;;;;3.35;74.84;98847.00;1750056;81;20210;-69
2022/04/09 05:17:25;;;;;;;;;;;;;;;3.42;74.87;98859.85;1750116;81;20366;-68
2022/04/09 05:19:51;;;;;;;;;;;;;;;3.50;74.91;98870.41;1750304;82;20693;-68
2022/04/09 05:22:17;;;;;;;;;;;;;;;3.58;74.93;98877.52;1750378;82;20217;-68
2022/04/09 05:24:42;;;;;;;;;;;;;;;3.63;74.93;98880.95;1750112;81;21109;-68
2022/04/09 05:27:08;;;;;;;;;;;;;;;3.64;74.95;98884.76;1750032;82;20268;-68
2022/04/09 05:29:34;;;;;;;;;;;;;;;3.72;74.98;98894.49;1750115;82;20745;-68
2022/04/09 05:32:00;;;;;;;;;;;;;;;3.76;74.97;98890.55;1750292;81;20201;-68
2022/04/09 05:34:26;;;;;;;;;;;;;;;3.76;74.97;98895.82;1750176;82;20657;-68
2022/04/09 05:36:51;;;;;;;;;;;;;;;3.75;74.99;98895.48;1749794;82;21210;-67
2022/04/09 05:39:18;;;;;;;;;;;;;;;3.76;74.97;98903.73;1750008;82;20352;-69
2022/04/09 05:41:44;;;;;;;;;;;;;;;3.81;75.00;98909.31;1749930;82;20496;-69
2022/04/09 05:44:10;;;;;;;;;;;;;;;3.84;74.98;98919.53;1750185;82;20237;-69
2022/04/09 05:46:36;;;;;;;;;;;;;;;3.88;75.00;98926.13;1750192;82;20185;-69
2022/04/09 05:49:02;;;;;;;;;;;;;;;3.93;74.99;98926.48;1750213;82;21857;-69
2022/04/09 05:51:28;;;;;;;;;;;;;;;3.97;74.99;98931.27;1750075;82;20463;-69
2022/04/09 05:53:55;;;;;;;;;;;;;;;4.03;74.98;98933.73;1750057;81;20518;-69
2022/04/09 05:56:22;;;;;;;;;;;;;;;4.03;74.97;98938.52;1750097;82;20496;-69
2022/04/09 05:58:48;;;;;;;;;;;;;;;4.07;74.95;98944.30;1750061;81;20357;-69
2022/04/09 06:01:14;;;;;;;;;;;;;;;4.13;74.94;98948.90;1750256;82;21169;-69
2022/04/09 06:03:40;;;;;;;;;;;;;;;4.14;74.93;98945.28;1750007;82;20189;-69
2022/04/09 06:06:06;;;;;;;;;;;;;;;4.14;74.89;98952.37;1750061;82;20175;-68
2022/04/09 06:08:37;;;;;;;;;;;;;;;4.16;74.88;98941.97;1750020;82;20173;-69
2022/04/09 06:11:00;;;;;;;;;;;;;;;4.23;74.85;98951.37;1749795;82;20491;-69
2022/04/09 06:13:26;;;;;;;;;;;;;;;4.32;74.83;98956.50;1750353;82;21216;-69
2022/04/09 06:15:53;;;;;;;;;;;;;;;4.42;74.78;98958.47;1749952;82;20154;-68
2022/04/09 06:18:18;;;;;;;;;;;;;;;4.47;74.75;98965.37;1750479;82;20147;-69
2022/04/09 06:20:44;;;;;;;;;;;;;;;4.43;74.70;98961.41;1749827;82;20161;-69
2022/04/09 06:23:10;;;;;;;;;;;;;;;4.49;74.66;98969.19;1750460;82;20209;-69
2022/04/09 06:25:36;;;;;;;;;;;;;;;4.51;74.60;98963.23;1750221;82;21131;-69
2022/04/09 06:28:02;;;;;;;;;;;;;;;4.53;74.53;98966.05;1750226;82;20225;-68
2022/04/09 06:30:28;;;;;;;;;;;;;;;4.66;74.48;98971.30;1750303;81;20319;-69
2022/04/09 06:32:54;;;;;;;;;;;;;;;4.97;74.41;98973.05;1750067;82;20185;-68
2022/04/09 06:35:21;;;;;;;;;;;;;;;5.25;74.28;98972.63;1750244;82;20150;-69
2022/04/09 06:37:47;;;;;;;;;;;;;;;5.39;74.17;98983.31;1750215;82;20873;-70
2022/04/09 06:40:12;;;;;;;;;;;;;;;5.39;74.05;98984.63;1750304;82;20193;-69
2022/04/09 06:42:39;;;;;;;;;;;;;;;5.39;73.92;98993.88;1749896;82;20178;-69
2022/04/09 06:45:08;;;;;;;;;;;;;;;5.39;73.81;98995.70;1750179;81;20170;-69
2022/04/09 06:47:37;;;;;;;;;;;;;;;5.46;73.62;99000.13;1750382;82;20466;-69
2022/04/09 06:50:08;;;;;;;;;;;;;;;5.30;73.45;99001.53;1750344;82;21833;-69
2022/04/09 06:52:34;;;;;;;;;;;;;;;5.31;73.34;99010.29;1750212;82;20271;-69
2022/04/09 06:54:59;;;;;;;;;;;;;;;5.34;73.20;99009.45;1750431;82;20303;-69
2022/04/09 06:57:25;;;;;;;;;;;;;;;5.29;73.03;99023.66;1750332;82;20228;-69
2022/04/09 06:59:51;;;;;;;;;;;;;;;5.30;72.91;99012.10;1749982;82;20162;-69
2022/04/09 07:02:17;;;;;;;;;;;;;;;5.42;72.79;99023.94;1750198;82;21074;-69
2022/04/09 07:04:44;;;;;;;;;;;;;;;5.42;72.56;99030.55;1745387;82;20279;-69
2022/04/09 07:07:09;;;;;;;;;;;;;;;5.41;72.41;99039.49;1734180;81;20159;-69
2022/04/09 07:09:35;;;;;;;;;;;;;;;5.64;72.30;99034.77;1711182;82;20675;-69
2022/04/09 07:12:01;;;;;;;;;;;;;;;5.76;72.09;99040.02;1703851;84;20221;-69
2022/04/09 07:14:27;;;;;;;;;;;;;;;5.92;71.90;99050.03;1703856;84;21219;-69
2022/04/09 07:16:53;;;;;;;;;;;;;;;6.14;71.68;99056.37;1703596;84;20178;-69
2022/04/09 07:19:18;;;;;;;;;;;;;;;6.29;71.45;99060.42;1703711;84;20225;-69
2022/04/09 07:21:44;;;;;;;;;;;;;;;6.41;71.24;99055.86;1703445;84;20234;-69
2022/04/09 07:24:10;;;;;;;;;;;;;;;6.40;71.01;99068.76;1703675;84;20182;-69
2022/04/09 07:26:36;;;;;;;;;;;;;;;6.23;70.79;99066.39;1703598;84;21862;-69
2022/04/09 07:29:02;;;;;;;;;;;;;;;6.18;70.60;99076.70;1703503;84;20301;-69
2022/04/09 07:31:27;;;;;;;;;;;;;;;6.39;70.45;99083.02;1703688;84;20261;-69
2022/04/09 07:33:53;;;;;;;;;;;;;;;6.64;70.26;99096.09;1703675;84;20151;-69
2022/04/09 07:36:19;;;;;;;;;;;;;;;6.75;70.04;99104.95;1703603;84;20171;-69
2022/04/09 07:38:45;;;;;;;;;;;;;;;6.92;69.78;99095.88;1703497;84;21725;-69
2022/04/09 07:41:11;;;;;;;;;;;;;;;6.91;69.47;99104.31;1703631;84;20194;-69
2022/04/09 07:43:36;;;;;;;;;;;;;;;7.05;69.19;99110.66;1703569;84;20217;-69
2022/04/09 07:46:02;;;;;;;;;;;;;;;7.14;68.75;99118.88;1703547;84;20158;-69
2022/04/09 07:48:28;;;;;;;;;;;;;;;7.34;68.46;99121.34;1703858;84;20301;-69
2022/04/09 07:50:54;;;;;;;;;;;;;;;7.62;68.12;99133.48;1703675;84;21174;-69
2022/04/09 07:53:20;;;;;;;;;;;;;;;7.66;67.53;99129.96;1703603;84;20186;-69
2022/04/09 07:55:46;;;;;;;;;;;;;;;7.56;67.18;99138.20;1703608;84;20209;-70
2022/04/09 07:58:14;;;;;;;;;;;;;;;7.63;66.94;99142.27;1703577;84;20480;-69
2022/04/09 08:00:40;;;;;;;;;;;;;;;7.66;66.45;99148.03;1703535;84;20188;-69
2022/04/09 08:03:08;;;;;;;;;;;;;;;7.72;65.90;99161.06;1703399;84;20863;-69
2022/04/09 08:05:34;;;;;;;;;;;;;;;7.63;65.39;99163.00;1703153;84;20183;-70
2022/04/09 08:08:01;;;;;;;;;;;;;;;7.44;64.94;99170.97;1703550;84;20726;-70
2022/04/09 08:10:27;;;;;;;;;;;;;;;7.31;64.66;99181.86;1737938;82;20140;-69
2022/04/09 08:12:53;;;;;;;;;;;;;;;7.39;64.48;99182.59;1739033;82;20300;-69
2022/04/09 08:15:19;;;;;;;;;;;;;;;7.50;64.13;99187.48;1739212;82;21076;-69
2022/04/09 08:17:45;;;;;;;;;;;;;;;7.75;63.99;99189.89;1738846;82;20201;-69
2022/04/09 08:20:13;;;;;;;;;;;;;;;7.57;63.43;99194.70;1739155;82;20171;-69
2022/04/09 08:22:40;;;;;;;;;;;;;;;7.54;63.02;99199.38;1738936;82;20458;-69
2022/04/09 08:25:06;;;;;;;;;;;;;;;7.34;62.75;99200.89;1738914;82;20475;-69
2022/04/09 08:27:33;;;;;;;;;;;;;;;7.20;62.45;99208.30;1739182;82;21219;-69
2022/04/09 08:29:59;;;;;;;;;;;;;;;7.00;62.29;99208.45;1738943;82;20337;-69
2022/04/09 08:32:25;;;;;;;;;;;;;;;7.03;62.08;99216.05;1739279;82;20241;-70
2022/04/09 08:34:53;;;;;;;;;;;;;;;7.08;61.88;99216.83;1738986;82;20205;-69
2022/04/09 08:37:19;;;;;;;;;;;;;;;6.94;61.66;99225.03;1738889;82;20510;-69
2022/04/09 08:39:45;;;;;;;;;;;;;;;6.70;61.36;99228.66;1739003;82;21040;-69
2022/04/09 08:42:11;;;;;;;;;;;;;;;6.54;61.25;99230.08;1738851;82;20213;-69
2022/04/09 08:44:37;;;;;;;;;;;;;;;6.53;61.25;99227.92;1739038;82;20288;-69
2022/04/09 08:47:03;;;;;;;;;;;;;;;6.74;61.21;99240.56;1739191;82;20197;-69
2022/04/09 08:49:29;;;;;;;;;;;;;;;7.10;61.24;99241.34;1739427;82;20167;-69
2022/04/09 08:51:55;;;;;;;;;;;;;;;7.60;61.18;99237.62;1738981;82;21073;-70
2022/04/09 08:54:21;;;;;;;;;;;;;;;7.84;60.97;99230.78;1738945;82;20504;-70
2022/04/09 08:56:49;;;;;;;;;;;;;;;7.93;60.76;99236.82;1738866;82;20251;-69
2022/04/09 08:59:14;;;;;;;;;;;;;;;8.18;60.50;99244.02;1738949;82;20167;-69
2022/04/09 09:01:40;;;;;;;;;;;;;;;8.41;60.31;99248.26;1739130;82;20300;-70
2022/04/09 09:04:06;;;;;;;;;;;;;;;8.65;60.01;99251.14;1739075;82;21139;-70
2022/04/09 09:06:35;;;;;;;;;;;;;;;8.67;59.64;99250.94;1738701;82;20190;-70
2022/04/09 09:09:03;;;;;;;;;;;;;;;8.79;59.47;99249.46;1729721;82;20147;-70
2022/04/09 09:11:29;;;;;;;;;;;;;;;8.70;59.28;99251.89;1703667;84;20418;-70
2022/04/09 09:13:56;;;;;;;;;;;;;;;8.64;59.20;99256.13;1703602;84;20171;-70
2022/04/09 09:16:31;;;;;;;;;;;;;;;8.83;58.97;99260.05;1703606;84;21078;-70
2022/04/09 09:19:04;;;;;;;;;;;;;;;8.81;58.65;99262.05;1703520;84;20167;-70
2022/04/09 09:21:30;;;;;;;;;;;;;;;8.96;58.52;99257.53;1703280;84;20152;-70
2022/04/09 09:24:15;;;;;;;;;;;;;;;9.07;58.14;99265.53;1703650;84;20194;-70
2022/04/09 09:26:43;;;;;;;;;;;;;;;9.08;57.97;99261.33;1703310;84;20435;-70
2022/04/09 09:29:11;;;;;;;;;;;;;;;8.87;57.76;99269.27;1703474;84;21840;-69
2022/04/09 09:31:47;;;;;;;;;;;;;;;8.94;57.74;99272.83;1703480;84;20144;-70
2022/04/09 09:34:19;;;;;;;;;;;;;;;9.09;57.62;99267.48;1703177;84;20163;-70
2022/04/09 09:36:45;;;;;;;;;;;;;;;9.16;57.36;99271.86;1703488;84;20164;-70
2022/04/09 09:39:13;;;;;;;;;;;;;;;9.17;56.83;99278.84;1703394;84;20182;-70
2022/04/09 09:41:55;;;;;;;;;;;;;;;9.17;56.47;99278.84;1703587;84;21090;-70
2022/04/09 09:44:23;;;;;;;;;;;;;;;9.20;56.20;99283.78;1703499;84;20159;-70
2022/04/09 09:46:50;;;;;;;;;;;;;;;9.19;55.78;99281.30;1703127;84;20152;-70
2022/04/09 09:49:17;;;;;;;;;;;;;;;9.22;55.56;99288.39;1703489;84;20562;-69
2022/04/09 09:51:43;;;;;;;;;;;;;;;9.44;55.20;99282.08;1703510;84;20175;-70
2022/04/09 09:54:11;;;;;;;;;;;;;;;9.46;54.82;99302.66;1703573;84;21912;-70
2022/04/09 09:56:39;;;;;;;;;;;;;;;9.47;54.29;99295.50;1703289;84;20156;-70
2022/04/09 09:59:05;;;;;;;;;;;;;;;9.51;54.03;99300.27;1703533;84;20147;-70
2022/04/09 10:01:37;;;;;;;;;;;;;;;9.54;53.83;99302.55;1703196;84;20167;-70
2022/04/09 10:04:04;;;;;;;;;;;;;;;9.37;53.62;99295.00;1703440;84;20170;-70
2022/04/09 10:06:31;;;;;;;;;;;;;;;9.31;53.36;99301.91;1703457;84;21084;-70
2022/04/09 10:08:59;;;;;;;;;;;;;;;9.32;53.08;99301.41;1703179;82;20172;-70
2022/04/09 10:11:27;;;;;;;;;;;;;;;9.16;52.62;99306.94;1703471;84;20458;-70
2022/04/09 10:13:55;;;;;;;;;;;;;;;9.15;52.42;99299.46;1703427;84;20479;-70
2022/04/09 10:16:21;;;;;;;;;;;;;;;9.33;52.19;99299.87;1703600;84;20140;-70
2022/04/09 10:18:48;;;;;;;;;;;;;;;9.04;51.32;99302.10;1703390;84;21083;-70
2022/04/09 10:21:13;;;;;;;;;;;;;;;8.74;50.76;99314.31;1703325;84;20168;-70
2022/04/09 10:23:40;;;;;;;;;;;;;;;8.70;50.77;99317.84;1703434;84;20210;-70
2022/04/09 10:26:06;;;;;;;;;;;;;;;8.70;50.74;99308.53;1703568;84;20392;-70
2022/04/09 10:28:34;;;;;;;;;;;;;;;8.70;50.40;99321.00;1703567;84;20202;-70
2022/04/09 10:31:01;;;;;;;;;;;;;;;8.80;50.30;99324.19;1703379;84;21163;-70
2022/04/09 10:33:28;;;;;;;;;;;;;;;8.85;50.22;99312.52;1703624;84;20201;-70
2022/04/09 10:36:00;;;;;;;;;;;;;;;9.01;50.04;99311.79;1703412;84;20199;-70
2022/04/09 10:38:22;;;;;;;;;;;;;;;9.17;50.00;99318.73;1702698;84;20434;-70
2022/04/09 10:40:53;;;;;;;;;;;;;;;9.30;49.92;99321.53;1703532;84;20395;-70
2022/04/09 10:43:26;;;;;;;;;;;;;;;9.42;49.90;99317.38;1703425;84;21119;-70
2022/04/09 10:46:06;;;;;;;;;;;;;;;9.37;49.75;99318.94;1703433;84;20171;-70
2022/04/09 10:48:42;;;;;;;;;;;;;;;9.37;49.75;99330.42;1703342;84;20440;-70
2022/04/09 10:51:11;;;;;;;;;;;;;;;9.58;49.81;99324.78;1703494;84;20167;-70
2022/04/09 10:53:39;;;;;;;;;;;;;;;9.84;49.85;99332.53;1703628;84;20160;-70
2022/04/09 10:56:31;;;;;;;;;;;;;;;9.81;49.61;99325.44;1703683;84;21134;-70
2022/04/09 10:59:16;;;;;;;;;;;;;;;9.77;49.59;99336.14;1703858;84;20144;-70
2022/04/09 11:01:50;;;;;;;;;;;;;;;9.62;49.37;99332.71;1703522;84;20179;-70
2022/04/09 11:04:34;;;;;;;;;;;;;;;9.30;49.22;99334.84;1703309;84;20183;-70
2022/04/09 11:07:12;;;;;;;;;;;;;;;8.92;48.79;99328.05;1689265;83;20158;-70
2022/04/09 11:09:58;;;;;;;;;;;;;;;8.96;48.64;99343.95;1664610;84;21162;-71
2022/04/09 11:12:33;;;;;;;;;;;;;;;9.11;48.45;99348.75;1670598;85;20709;-69
2022/04/09 11:15:03;;;;;;;;;;;;;;;9.06;48.35;99353.79;1669693;84;20197;-70
2022/04/09 11:17:38;;;;;;;;;;;;;;;8.98;48.17;99356.05;1670840;85;20188;-70
2022/04/09 11:20:10;;;;;;;;;;;;;;;9.17;48.32;99359.97;1670892;86;20217;-70
2022/04/09 11:22:38;;;;;;;;;;;;;;;9.68;48.22;99358.56;1670666;86;21379;-70
2022/04/09 11:25:07;;;;;;;;;;;;;;;9.80;47.83;99373.03;1670869;86;20205;-70
2022/04/09 11:27:33;;;;;;;;;;;;;;;9.79;47.70;99370.05;1670547;85;20260;-70
2022/04/09 11:29:59;;;;;;;;;;;;;;;9.66;47.59;99372.58;1670875;86;20360;-70
2022/04/09 11:32:25;;;;;;;;;;;;;;;9.49;47.53;99382.65;1670937;86;20322;-70
2022/04/09 11:34:55;;;;;;;;;;;;;;;9.49;47.53;99388.80;1671106;86;21059;-70
2022/04/09 11:37:22;;;;;;;;;;;;;;;9.44;47.45;99379.71;1670883;86;20208;-70
2022/04/09 11:39:49;;;;;;;;;;;;;;;9.39;47.18;99384.25;1670991;85;20217;-70
2022/04/09 11:42:15;;;;;;;;;;;;;;;9.44;46.51;99387.70;1671124;86;20185;-70
2022/04/09 11:44:41;;;;;;;;;;;;;;;9.34;46.25;99399.97;1670674;86;20225;-70
2022/04/09 11:47:13;;;;;;;;;;;;;;;9.26;46.09;99398.73;1671132;86;21168;-70
2022/04/09 11:49:41;;;;;;;;;;;;;;;9.36;45.74;99403.76;1670778;86;20188;-70
2022/04/09 11:52:07;;;;;;;;;;;;;;;9.39;45.38;99391.44;1670834;86;20173;-70
2022/04/09 11:54:34;;;;;;;;;;;;;;;9.49;45.22;99391.46;1670893;84;20201;-70
2022/04/09 11:57:01;;;;;;;;;;;;;;;9.58;45.02;99387.33;1670817;86;20224;-70
2022/04/09 11:59:30;;;;;;;;;;;;;;;9.62;44.86;99389.94;1670985;85;21149;-70
2022/04/09 12:01:59;;;;;;;;;;;;;;;9.82;44.78;99385.13;1670895;86;20294;-70
2022/04/09 12:04:34;;;;;;;;;;;;;;;10.05;44.65;99392.95;1670811;86;20244;-70
2022/04/09 12:07:02;;;;;;;;;;;;;;;10.03;44.50;99386.97;1670808;84;20189;-70
2022/04/09 12:09:28;;;;;;;;;;;;;;;10.06;44.54;99391.94;1671447;85;20504;-70
2022/04/09 12:11:54;;;;;;;;;;;;;;;10.21;44.53;99391.37;1690835;84;21249;-70
2022/04/09 12:14:20;;;;;;;;;;;;;;;10.37;44.31;99391.11;1690495;85;20304;-70
2022/04/09 12:16:47;;;;;;;;;;;;;;;10.35;43.94;99402.45;1691125;85;20206;-71
2022/04/09 12:19:13;;;;;;;;;;;;;;;10.22;43.68;99401.52;1690599;85;20195;-70
2022/04/09 12:21:39;;;;;;;;;;;;;;;10.17;43.50;99396.76;1690942;85;20270;-70
2022/04/09 12:24:09;;;;;;;;;;;;;;;10.24;43.08;99397.64;1690914;85;21746;-70
2022/04/09 12:26:41;;;;;;;;;;;;;;;10.35;42.93;99407.78;1690892;84;20179;-70
2022/04/09 12:29:13;;;;;;;;;;;;;;;10.31;42.87;99401.19;1690813;85;20219;-71
2022/04/09 12:31:42;;;;;;;;;;;;;;;10.38;42.93;99403.39;1687316;83;20195;-70
2022/04/09 12:34:08;;;;;;;;;;;;;;;10.59;42.65;99392.39;1690971;85;20188;-70
2022/04/09 12:36:36;;;;;;;;;;;;;;;10.39;42.06;99394.89;1690890;84;21147;-70
2022/04/09 12:39:27;;;;;;;;;;;;;;;10.25;41.71;99390.48;1691030;84;20184;-70
2022/04/09 12:41:53;;;;;;;;;;;;;;;10.29;41.49;99395.23;1691169;85;20219;-71
2022/04/09 12:44:35;;;;;;;;;;;;;;;10.11;41.36;99398.00;1690957;85;20490;-70
2022/04/09 12:47:01;;;;;;;;;;;;;;;10.01;41.38;99394.34;1691184;85;20452;-70
2022/04/09 12:49:29;;;;;;;;;;;;;;;9.93;41.59;99395.79;1690868;84;21151;-70
2022/04/09 12:51:58;;;;;;;;;;;;;;;10.01;41.69;99405.83;1690104;83;20195;-70
2022/04/09 12:54:24;;;;;;;;;;;;;;;9.99;41.65;99408.37;1691046;85;20188;-70
2022/04/09 12:56:50;;;;;;;;;;;;;;;9.91;41.71;99403.98;1691115;83;20202;-70